sensor_id;sensor_type;location;lat;lon;timestamp;temperature;humidity
51801;DHT22;37855;53.204;6.568;2023-07-31T00:01:06;17.20;76.20
51801;DHT22;37855;53.204;6.568;2023-07-31T00:03:32;17.30;76.30
51801;DHT22;37855;53.204;6.568;2023-07-31T00:05:58;17.20;76.50
51801;DHT22;37855;53.204;6.568;2023-07-31T00:08:23;17.20;76.40
51801;DHT22;37855;53.204;6.568;2023-07-31T00:10:51;17.20;76.90
51801;DHT22;37855;53.204;6.568;2023-07-31T00:13:18;17.10;76.80
51801;DHT22;37855;53.204;6.568;2023-07-31T00:15:44;17.10;76.90
51801;DHT22;37855;53.204;6.568;2023-07-31T00:18:09;17.10;77.00
51801;DHT22;37855;53.204;6.568;2023-07-31T00:20:35;17.10;77.10
51801;DHT22;37855;53.204;6.568;2023-07-31T00:23:01;17.10;77.10
51801;DHT22;37855;53.204;6.568;2023-07-31T00:25:26;17.10;77.20
51801;DHT22;37855;53.204;6.568;2023-07-31T00:27:52;17.00;77.20
51801;DHT22;37855;53.204;6.568;2023-07-31T00:30:17;17.00;77.30
51801;DHT22;37855;53.204;6.568;2023-07-31T00:32:43;17.00;77.30
51801;DHT22;37855;53.204;6.568;2023-07-31T00:35:09;17.00;77.40
51801;DHT22;37855;53.204;6.568;2023-07-31T00:37:34;17.00;77.50
51801;DHT22;37855;53.204;6.568;2023-07-31T00:40:00;16.90;77.40
51801;DHT22;37855;53.204;6.568;2023-07-31T00:42:26;16.90;77.50
51801;DHT22;37855;53.204;6.568;2023-07-31T00:44:51;16.90;77.50
51801;DHT22;37855;53.204;6.568;2023-07-31T00:47:17;16.80;77.70
51801;DHT22;37855;53.204;6.568;2023-07-31T00:49:43;16.80;77.60
51801;DHT22;37855;53.204;6.568;2023-07-31T00:52:10;16.80;77.70
51801;DHT22;37855;53.204;6.568;2023-07-31T00:54:35;16.80;77.90
51801;DHT22;37855;53.204;6.568;2023-07-31T00:57:02;16.80;77.90
51801;DHT22;37855;53.204;6.568;2023-07-31T00:59:27;16.70;78.00
51801;DHT22;37855;53.204;6.568;2023-07-31T01:01:53;16.70;77.80
51801;DHT22;37855;53.204;6.568;2023-07-31T01:04:20;16.70;77.90
51801;DHT22;37855;53.204;6.568;2023-07-31T01:10:19;16.70;78.10
51801;DHT22;37855;53.204;6.568;2023-07-31T01:12:47;16.60;78.30
51801;DHT22;37855;53.204;6.568;2023-07-31T01:15:13;16.60;78.10
51801;DHT22;37855;53.204;6.568;2023-07-31T01:17:41;16.60;78.30
51801;DHT22;37855;53.204;6.568;2023-07-31T01:20:20;16.60;78.30
51801;DHT22;37855;53.204;6.568;2023-07-31T01:28:30;16.50;78.60
51801;DHT22;37855;53.204;6.568;2023-07-31T01:31:00;16.50;78.90
51801;DHT22;37855;53.204;6.568;2023-07-31T01:33:27;16.50;78.70
51801;DHT22;37855;53.204;6.568;2023-07-31T01:35:54;16.50;78.60
51801;DHT22;37855;53.204;6.568;2023-07-31T01:38:21;16.50;78.80
51801;DHT22;37855;53.204;6.568;2023-07-31T01:40:51;16.50;78.70
51801;DHT22;37855;53.204;6.568;2023-07-31T01:43:16;16.50;78.70
51801;DHT22;37855;53.204;6.568;2023-07-31T01:45:42;16.50;78.70
51801;DHT22;37855;53.204;6.568;2023-07-31T01:48:08;16.40;78.90
51801;DHT22;37855;53.204;6.568;2023-07-31T01:50:33;16.40;79.00
51801;DHT22;37855;53.204;6.568;2023-07-31T01:52:59;16.40;79.20
51801;DHT22;37855;53.204;6.568;2023-07-31T01:55:25;16.40;79.10
51801;DHT22;37855;53.204;6.568;2023-07-31T01:57:51;16.40;79.20
51801;DHT22;37855;53.204;6.568;2023-07-31T02:00:18;16.40;79.20
51801;DHT22;37855;53.204;6.568;2023-07-31T02:02:43;16.40;79.20
51801;DHT22;37855;53.204;6.568;2023-07-31T02:05:09;16.40;79.10
51801;DHT22;37855;53.204;6.568;2023-07-31T02:07:35;16.40;79.30
51801;DHT22;37855;53.204;6.568;2023-07-31T02:10:00;16.40;79.30
51801;DHT22;37855;53.204;6.568;2023-07-31T02:12:26;16.40;79.30
51801;DHT22;37855;53.204;6.568;2023-07-31T02:14:52;16.40;79.50
51801;DHT22;37855;53.204;6.568;2023-07-31T02:17:17;16.40;79.40
51801;DHT22;37855;53.204;6.568;2023-07-31T02:19:43;16.40;79.40
51801;DHT22;37855;53.204;6.568;2023-07-31T02:22:09;16.40;79.50
51801;DHT22;37855;53.204;6.568;2023-07-31T02:24:34;16.30;79.50
51801;DHT22;37855;53.204;6.568;2023-07-31T02:27:00;16.40;79.50
51801;DHT22;37855;53.204;6.568;2023-07-31T02:29:26;16.40;79.50
51801;DHT22;37855;53.204;6.568;2023-07-31T02:31:51;16.40;79.60
51801;DHT22;37855;53.204;6.568;2023-07-31T02:34:17;16.30;79.50
51801;DHT22;37855;53.204;6.568;2023-07-31T02:36:42;16.40;79.60
51801;DHT22;37855;53.204;6.568;2023-07-31T02:39:08;16.40;79.70
51801;DHT22;37855;53.204;6.568;2023-07-31T02:41:34;16.30;79.50
51801;DHT22;37855;53.204;6.568;2023-07-31T02:43:59;16.30;79.60
51801;DHT22;37855;53.204;6.568;2023-07-31T02:46:25;16.40;79.60
51801;DHT22;37855;53.204;6.568;2023-07-31T02:48:51;16.30;79.60
51801;DHT22;37855;53.204;6.568;2023-07-31T02:51:17;16.30;79.70
51801;DHT22;37855;53.204;6.568;2023-07-31T02:53:42;16.30;79.80
51801;DHT22;37855;53.204;6.568;2023-07-31T02:56:08;16.30;79.70
51801;DHT22;37855;53.204;6.568;2023-07-31T02:58:34;16.30;79.70
51801;DHT22;37855;53.204;6.568;2023-07-31T03:00:59;16.30;79.80
51801;DHT22;37855;53.204;6.568;2023-07-31T03:03:25;16.20;79.80
51801;DHT22;37855;53.204;6.568;2023-07-31T03:05:51;16.30;79.80
51801;DHT22;37855;53.204;6.568;2023-07-31T03:08:16;16.20;79.90
51801;DHT22;37855;53.204;6.568;2023-07-31T03:10:42;16.20;79.90
51801;DHT22;37855;53.204;6.568;2023-07-31T03:13:07;16.30;79.90
51801;DHT22;37855;53.204;6.568;2023-07-31T03:15:33;16.30;80.00
51801;DHT22;37855;53.204;6.568;2023-07-31T03:17:59;16.30;79.90
51801;DHT22;37855;53.204;6.568;2023-07-31T03:20:24;16.30;80.00
51801;DHT22;37855;53.204;6.568;2023-07-31T03:22:50;16.20;80.10
51801;DHT22;37855;53.204;6.568;2023-07-31T03:25:16;16.30;80.10
51801;DHT22;37855;53.204;6.568;2023-07-31T03:27:41;16.30;80.00
51801;DHT22;37855;53.204;6.568;2023-07-31T03:30:07;16.30;80.10
51801;DHT22;37855;53.204;6.568;2023-07-31T03:32:33;16.30;80.00
51801;DHT22;37855;53.204;6.568;2023-07-31T03:34:59;16.30;80.00
51801;DHT22;37855;53.204;6.568;2023-07-31T03:37:24;16.20;80.10
51801;DHT22;37855;53.204;6.568;2023-07-31T03:39:50;16.20;80.00
51801;DHT22;37855;53.204;6.568;2023-07-31T03:42:15;16.20;80.00
51801;DHT22;37855;53.204;6.568;2023-07-31T03:44:41;16.20;80.20
51801;DHT22;37855;53.204;6.568;2023-07-31T03:47:07;16.20;80.00
51801;DHT22;37855;53.204;6.568;2023-07-31T03:49:32;16.20;80.20
51801;DHT22;37855;53.204;6.568;2023-07-31T03:51:58;16.20;80.10
51801;DHT22;37855;53.204;6.568;2023-07-31T03:54:24;16.20;80.20
51801;DHT22;37855;53.204;6.568;2023-07-31T03:56:50;16.20;80.10
51801;DHT22;37855;53.204;6.568;2023-07-31T03:59:16;16.20;80.30
51801;DHT22;37855;53.204;6.568;2023-07-31T04:01:41;16.10;80.60
51801;DHT22;37855;53.204;6.568;2023-07-31T04:04:07;16.10;80.30
51801;DHT22;37855;53.204;6.568;2023-07-31T04:06:32;16.10;80.40
51801;DHT22;37855;53.204;6.568;2023-07-31T04:08:58;16.10;80.30
51801;DHT22;37855;53.204;6.568;2023-07-31T04:11:24;16.10;80.40
51801;DHT22;37855;53.204;6.568;2023-07-31T04:13:49;16.10;80.40
51801;DHT22;37855;53.204;6.568;2023-07-31T04:16:15;16.10;80.40
51801;DHT22;37855;53.204;6.568;2023-07-31T04:18:41;16.10;80.50
51801;DHT22;37855;53.204;6.568;2023-07-31T04:21:06;16.10;80.50
51801;DHT22;37855;53.204;6.568;2023-07-31T04:23:32;16.10;80.60
51801;DHT22;37855;53.204;6.568;2023-07-31T04:25:58;16.10;80.60
51801;DHT22;37855;53.204;6.568;2023-07-31T04:28:23;16.10;80.60
51801;DHT22;37855;53.204;6.568;2023-07-31T04:30:51;16.10;80.60
51801;DHT22;37855;53.204;6.568;2023-07-31T04:33:17;16.20;80.60
51801;DHT22;37855;53.204;6.568;2023-07-31T04:35:51;16.20;80.60
51801;DHT22;37855;53.204;6.568;2023-07-31T04:38:21;16.20;80.60
51801;DHT22;37855;53.204;6.568;2023-07-31T04:40:47;16.20;80.60
51801;DHT22;37855;53.204;6.568;2023-07-31T04:43:13;16.20;80.60
51801;DHT22;37855;53.204;6.568;2023-07-31T04:45:38;16.20;80.50
51801;DHT22;37855;53.204;6.568;2023-07-31T04:48:04;16.20;80.60
51801;DHT22;37855;53.204;6.568;2023-07-31T04:50:30;16.20;80.60
51801;DHT22;37855;53.204;6.568;2023-07-31T04:52:56;16.20;80.50
51801;DHT22;37855;53.204;6.568;2023-07-31T04:55:21;16.20;80.60
51801;DHT22;37855;53.204;6.568;2023-07-31T04:57:47;16.20;80.60
51801;DHT22;37855;53.204;6.568;2023-07-31T05:00:13;16.20;80.60
51801;DHT22;37855;53.204;6.568;2023-07-31T05:02:39;16.20;80.60
51801;DHT22;37855;53.204;6.568;2023-07-31T05:05:04;16.20;80.60
51801;DHT22;37855;53.204;6.568;2023-07-31T05:07:30;16.20;80.60
51801;DHT22;37855;53.204;6.568;2023-07-31T05:09:59;16.20;80.60
51801;DHT22;37855;53.204;6.568;2023-07-31T05:12:26;16.20;80.70
51801;DHT22;37855;53.204;6.568;2023-07-31T05:14:52;16.20;80.70
51801;DHT22;37855;53.204;6.568;2023-07-31T05:17:17;16.20;80.60
51801;DHT22;37855;53.204;6.568;2023-07-31T05:19:43;16.30;80.70
51801;DHT22;37855;53.204;6.568;2023-07-31T05:22:09;16.30;80.90
51801;DHT22;37855;53.204;6.568;2023-07-31T05:24:34;16.20;80.90
51801;DHT22;37855;53.204;6.568;2023-07-31T05:27:00;16.20;80.80
51801;DHT22;37855;53.204;6.568;2023-07-31T05:29:26;16.20;81.00
51801;DHT22;37855;53.204;6.568;2023-07-31T05:31:56;16.20;81.00
51801;DHT22;37855;53.204;6.568;2023-07-31T05:34:26;16.20;81.00
51801;DHT22;37855;53.204;6.568;2023-07-31T05:36:52;16.30;80.90
51801;DHT22;37855;53.204;6.568;2023-07-31T05:39:19;16.30;81.10
51801;DHT22;37855;53.204;6.568;2023-07-31T05:41:45;16.30;81.20
51801;DHT22;37855;53.204;6.568;2023-07-31T05:44:11;16.30;81.10
51801;DHT22;37855;53.204;6.568;2023-07-31T05:46:37;16.30;81.00
51801;DHT22;37855;53.204;6.568;2023-07-31T05:49:02;16.30;81.10
51801;DHT22;37855;53.204;6.568;2023-07-31T05:51:28;16.30;81.10
51801;DHT22;37855;53.204;6.568;2023-07-31T05:53:55;16.30;81.20
51801;DHT22;37855;53.204;6.568;2023-07-31T05:56:20;16.30;81.50
51801;DHT22;37855;53.204;6.568;2023-07-31T05:58:46;16.30;81.20
51801;DHT22;37855;53.204;6.568;2023-07-31T06:01:12;16.30;81.30
51801;DHT22;37855;53.204;6.568;2023-07-31T06:03:40;16.30;81.30
51801;DHT22;37855;53.204;6.568;2023-07-31T06:06:05;16.30;81.40
51801;DHT22;37855;53.204;6.568;2023-07-31T06:08:34;16.30;81.60
51801;DHT22;37855;53.204;6.568;2023-07-31T06:11:00;16.30;81.40
51801;DHT22;37855;53.204;6.568;2023-07-31T06:13:27;16.40;81.30
51801;DHT22;37855;53.204;6.568;2023-07-31T06:15:54;16.40;81.50
51801;DHT22;37855;53.204;6.568;2023-07-31T06:18:20;16.40;81.40
51801;DHT22;37855;53.204;6.568;2023-07-31T06:20:46;16.40;81.60
51801;DHT22;37855;53.204;6.568;2023-07-31T06:23:18;16.40;81.50
51801;DHT22;37855;53.204;6.568;2023-07-31T06:25:44;16.40;81.50
51801;DHT22;37855;53.204;6.568;2023-07-31T06:28:10;16.40;81.50
51801;DHT22;37855;53.204;6.568;2023-07-31T06:30:35;16.40;81.70
51801;DHT22;37855;53.204;6.568;2023-07-31T06:33:01;16.50;81.70
51801;DHT22;37855;53.204;6.568;2023-07-31T06:35:28;16.50;81.50
51801;DHT22;37855;53.204;6.568;2023-07-31T06:37:54;16.50;81.60
51801;DHT22;37855;53.204;6.568;2023-07-31T06:40:19;16.60;81.50
51801;DHT22;37855;53.204;6.568;2023-07-31T06:42:45;16.60;81.60
51801;DHT22;37855;53.204;6.568;2023-07-31T06:45:11;16.70;81.60
51801;DHT22;37855;53.204;6.568;2023-07-31T06:47:37;16.70;81.70
51801;DHT22;37855;53.204;6.568;2023-07-31T06:50:02;16.80;81.70
51801;DHT22;37855;53.204;6.568;2023-07-31T06:52:28;16.90;81.70
51801;DHT22;37855;53.204;6.568;2023-07-31T06:55:16;17.00;81.70
51801;DHT22;37855;53.204;6.568;2023-07-31T06:57:49;17.10;81.50
51801;DHT22;37855;53.204;6.568;2023-07-31T07:00:15;17.20;81.40
51801;DHT22;37855;53.204;6.568;2023-07-31T07:02:42;17.20;81.40
51801;DHT22;37855;53.204;6.568;2023-07-31T07:05:08;17.30;81.20
51801;DHT22;37855;53.204;6.568;2023-07-31T07:07:34;17.40;81.10
51801;DHT22;37855;53.204;6.568;2023-07-31T07:10:00;17.40;81.10
51801;DHT22;37855;53.204;6.568;2023-07-31T07:12:28;17.40;81.20
51801;DHT22;37855;53.204;6.568;2023-07-31T07:14:54;17.50;81.10
51801;DHT22;37855;53.204;6.568;2023-07-31T07:17:20;17.50;81.00
51801;DHT22;37855;53.204;6.568;2023-07-31T07:19:47;17.40;81.00
51801;DHT22;37855;53.204;6.568;2023-07-31T07:22:13;17.40;81.00
51801;DHT22;37855;53.204;6.568;2023-07-31T07:24:39;17.40;80.90
51801;DHT22;37855;53.204;6.568;2023-07-31T07:27:05;17.40;80.80
51801;DHT22;37855;53.204;6.568;2023-07-31T07:29:31;17.40;81.00
51801;DHT22;37855;53.204;6.568;2023-07-31T07:31:57;17.40;80.90
51801;DHT22;37855;53.204;6.568;2023-07-31T07:34:25;17.40;81.00
51801;DHT22;37855;53.204;6.568;2023-07-31T07:36:51;17.40;80.90
51801;DHT22;37855;53.204;6.568;2023-07-31T07:39:17;17.30;81.00
51801;DHT22;37855;53.204;6.568;2023-07-31T07:41:42;17.40;81.10
51801;DHT22;37855;53.204;6.568;2023-07-31T07:44:08;17.30;81.10
51801;DHT22;37855;53.204;6.568;2023-07-31T07:46:34;17.30;81.10
51801;DHT22;37855;53.204;6.568;2023-07-31T07:49:03;17.30;81.10
51801;DHT22;37855;53.204;6.568;2023-07-31T07:51:28;17.30;81.20
51801;DHT22;37855;53.204;6.568;2023-07-31T07:53:56;17.30;81.60
51801;DHT22;37855;53.204;6.568;2023-07-31T07:56:22;17.30;81.30
51801;DHT22;37855;53.204;6.568;2023-07-31T07:58:49;17.30;81.30
51801;DHT22;37855;53.204;6.568;2023-07-31T08:01:16;17.30;81.50
51801;DHT22;37855;53.204;6.568;2023-07-31T08:03:41;17.30;81.30
51801;DHT22;37855;53.204;6.568;2023-07-31T08:06:07;17.40;81.30
51801;DHT22;37855;53.204;6.568;2023-07-31T08:08:37;17.40;81.10
51801;DHT22;37855;53.204;6.568;2023-07-31T08:11:03;17.40;81.20
51801;DHT22;37855;53.204;6.568;2023-07-31T08:13:29;17.40;81.00
51801;DHT22;37855;53.204;6.568;2023-07-31T08:15:55;17.50;81.00
51801;DHT22;37855;53.204;6.568;2023-07-31T08:18:21;17.50;81.00
51801;DHT22;37855;53.204;6.568;2023-07-31T08:20:47;17.50;80.80
51801;DHT22;37855;53.204;6.568;2023-07-31T08:23:12;17.50;80.70
51801;DHT22;37855;53.204;6.568;2023-07-31T08:25:38;17.60;80.70
51801;DHT22;37855;53.204;6.568;2023-07-31T08:28:05;17.60;80.60
51801;DHT22;37855;53.204;6.568;2023-07-31T08:30:31;17.70;80.70
51801;DHT22;37855;53.204;6.568;2023-07-31T08:32:59;17.70;80.70
51801;DHT22;37855;53.204;6.568;2023-07-31T08:35:26;17.80;80.60
51801;DHT22;37855;53.204;6.568;2023-07-31T08:37:53;17.80;80.50
51801;DHT22;37855;53.204;6.568;2023-07-31T08:40:19;17.90;80.40
51801;DHT22;37855;53.204;6.568;2023-07-31T08:42:50;17.90;80.30
51801;DHT22;37855;53.204;6.568;2023-07-31T08:45:19;17.90;80.40
51801;DHT22;37855;53.204;6.568;2023-07-31T08:47:47;18.00;80.30
51801;DHT22;37855;53.204;6.568;2023-07-31T08:50:14;18.10;80.20
51801;DHT22;37855;53.204;6.568;2023-07-31T08:52:40;18.20;80.10
51801;DHT22;37855;53.204;6.568;2023-07-31T08:55:07;18.30;80.00
51801;DHT22;37855;53.204;6.568;2023-07-31T08:57:35;18.30;79.90
51801;DHT22;37855;53.204;6.568;2023-07-31T09:00:03;18.30;79.80
51801;DHT22;37855;53.204;6.568;2023-07-31T09:02:34;18.40;79.80
51801;DHT22;37855;53.204;6.568;2023-07-31T09:05:02;18.40;79.70
51801;DHT22;37855;53.204;6.568;2023-07-31T09:07:29;18.40;79.70
51801;DHT22;37855;53.204;6.568;2023-07-31T09:10:00;18.40;79.50
51801;DHT22;37855;53.204;6.568;2023-07-31T09:12:26;18.40;79.50
51801;DHT22;37855;53.204;6.568;2023-07-31T09:14:51;18.40;79.40
51801;DHT22;37855;53.204;6.568;2023-07-31T09:17:35;18.40;79.50
51801;DHT22;37855;53.204;6.568;2023-07-31T09:20:19;18.40;79.40
51801;DHT22;37855;53.204;6.568;2023-07-31T09:22:45;18.40;79.70
51801;DHT22;37855;53.204;6.568;2023-07-31T09:25:20;18.40;79.70
51801;DHT22;37855;53.204;6.568;2023-07-31T09:27:58;18.40;79.60
51801;DHT22;37855;53.204;6.568;2023-07-31T09:30:24;18.40;79.60
51801;DHT22;37855;53.204;6.568;2023-07-31T09:32:52;18.40;79.60
51801;DHT22;37855;53.204;6.568;2023-07-31T09:35:29;18.30;79.70
51801;DHT22;37855;53.204;6.568;2023-07-31T09:38:00;18.30;79.90
51801;DHT22;37855;53.204;6.568;2023-07-31T09:40:42;18.30;79.90
51801;DHT22;37855;53.204;6.568;2023-07-31T09:43:10;18.30;80.20
51801;DHT22;37855;53.204;6.568;2023-07-31T09:45:38;18.30;80.10
51801;DHT22;37855;53.204;6.568;2023-07-31T09:48:18;18.30;80.10
51801;DHT22;37855;53.204;6.568;2023-07-31T09:50:48;18.40;80.20
51801;DHT22;37855;53.204;6.568;2023-07-31T09:53:15;18.40;80.20
51801;DHT22;37855;53.204;6.568;2023-07-31T09:55:41;18.40;80.20
51801;DHT22;37855;53.204;6.568;2023-07-31T09:58:12;18.40;80.30
51801;DHT22;37855;53.204;6.568;2023-07-31T10:00:39;18.30;80.40
51801;DHT22;37855;53.204;6.568;2023-07-31T10:03:09;18.30;80.50
51801;DHT22;37855;53.204;6.568;2023-07-31T10:05:42;18.20;80.70
51801;DHT22;37855;53.204;6.568;2023-07-31T10:08:10;18.20;80.80
51801;DHT22;37855;53.204;6.568;2023-07-31T10:10:44;18.20;80.80
51801;DHT22;37855;53.204;6.568;2023-07-31T10:13:10;18.20;80.90
51801;DHT22;37855;53.204;6.568;2023-07-31T10:15:36;18.20;81.10
51801;DHT22;37855;53.204;6.568;2023-07-31T10:18:02;18.20;81.70
51801;DHT22;37855;53.204;6.568;2023-07-31T10:20:31;18.20;81.30
51801;DHT22;37855;53.204;6.568;2023-07-31T10:22:58;18.20;81.30
51801;DHT22;37855;53.204;6.568;2023-07-31T10:25:26;18.20;81.40
51801;DHT22;37855;53.204;6.568;2023-07-31T10:27:53;18.30;81.30
51801;DHT22;37855;53.204;6.568;2023-07-31T10:30:22;18.20;81.50
51801;DHT22;37855;53.204;6.568;2023-07-31T10:32:51;18.30;81.40
51801;DHT22;37855;53.204;6.568;2023-07-31T10:35:18;18.30;81.40
51801;DHT22;37855;53.204;6.568;2023-07-31T10:37:44;18.30;81.50
51801;DHT22;37855;53.204;6.568;2023-07-31T10:40:18;18.40;81.50
51801;DHT22;37855;53.204;6.568;2023-07-31T10:42:55;18.50;81.60
51801;DHT22;37855;53.204;6.568;2023-07-31T10:48:04;18.50;81.50
51801;DHT22;37855;53.204;6.568;2023-07-31T10:50:32;18.50;81.60
51801;DHT22;37855;53.204;6.568;2023-07-31T10:52:58;18.60;81.40
51801;DHT22;37855;53.204;6.568;2023-07-31T10:58:13;18.70;81.40
51801;DHT22;37855;53.204;6.568;2023-07-31T11:00:42;18.80;81.20
51801;DHT22;37855;53.204;6.568;2023-07-31T11:03:18;18.80;80.60
51801;DHT22;37855;53.204;6.568;2023-07-31T11:08:28;18.70;80.50
51801;DHT22;37855;53.204;6.568;2023-07-31T11:11:14;18.70;80.50
51801;DHT22;37855;53.204;6.568;2023-07-31T11:13:50;18.80;80.40
51801;DHT22;37855;53.204;6.568;2023-07-31T11:16:22;19.00;80.30
51801;DHT22;37855;53.204;6.568;2023-07-31T11:18:49;19.10;80.10
51801;DHT22;37855;53.204;6.568;2023-07-31T11:21:16;19.30;79.60
51801;DHT22;37855;53.204;6.568;2023-07-31T11:23:49;19.40;79.40
51801;DHT22;37855;53.204;6.568;2023-07-31T11:26:17;19.40;79.40
51801;DHT22;37855;53.204;6.568;2023-07-31T11:28:46;19.50;79.20
51801;DHT22;37855;53.204;6.568;2023-07-31T11:31:12;19.50;79.20
51801;DHT22;37855;53.204;6.568;2023-07-31T11:33:38;19.50;79.30
51801;DHT22;37855;53.204;6.568;2023-07-31T11:36:04;19.40;79.10
51801;DHT22;37855;53.204;6.568;2023-07-31T11:38:32;19.40;79.20
51801;DHT22;37855;53.204;6.568;2023-07-31T11:41:02;19.30;79.20
51801;DHT22;37855;53.204;6.568;2023-07-31T11:43:29;19.30;79.40
51801;DHT22;37855;53.204;6.568;2023-07-31T11:45:57;19.20;79.10
51801;DHT22;37855;53.204;6.568;2023-07-31T11:48:27;19.20;79.00
51801;DHT22;37855;53.204;6.568;2023-07-31T11:50:58;19.10;79.20
51801;DHT22;37855;53.204;6.568;2023-07-31T11:53:51;19.10;79.10
51801;DHT22;37855;53.204;6.568;2023-07-31T11:56:18;19.10;79.10
51801;DHT22;37855;53.204;6.568;2023-07-31T11:58:50;19.10;78.90
51801;DHT22;37855;53.204;6.568;2023-07-31T12:01:19;19.20;79.00
51801;DHT22;37855;53.204;6.568;2023-07-31T12:03:47;19.20;79.00
51801;DHT22;37855;53.204;6.568;2023-07-31T12:06:13;19.30;79.00
51801;DHT22;37855;53.204;6.568;2023-07-31T12:08:38;19.30;78.80
51801;DHT22;37855;53.204;6.568;2023-07-31T12:11:05;19.50;78.80
51801;DHT22;37855;53.204;6.568;2023-07-31T12:13:33;19.60;78.60
51801;DHT22;37855;53.204;6.568;2023-07-31T12:16:03;19.70;78.50
51801;DHT22;37855;53.204;6.568;2023-07-31T12:18:41;19.70;78.40
51801;DHT22;37855;53.204;6.568;2023-07-31T12:21:08;19.80;78.30
51801;DHT22;37855;53.204;6.568;2023-07-31T12:23:37;19.90;78.30
51801;DHT22;37855;53.204;6.568;2023-07-31T12:26:08;19.90;78.30
51801;DHT22;37855;53.204;6.568;2023-07-31T12:28:40;19.90;77.70
51801;DHT22;37855;53.204;6.568;2023-07-31T12:31:08;19.80;77.90
51801;DHT22;37855;53.204;6.568;2023-07-31T12:33:35;19.80;78.10
51801;DHT22;37855;53.204;6.568;2023-07-31T12:36:09;19.80;78.10
51801;DHT22;37855;53.204;6.568;2023-07-31T12:38:35;19.80;78.00
51801;DHT22;37855;53.204;6.568;2023-07-31T12:41:00;19.90;77.90
51801;DHT22;37855;53.204;6.568;2023-07-31T12:43:26;19.90;77.70
51801;DHT22;37855;53.204;6.568;2023-07-31T12:45:54;20.00;77.70
51801;DHT22;37855;53.204;6.568;2023-07-31T12:48:21;20.00;77.60
51801;DHT22;37855;53.204;6.568;2023-07-31T12:50:47;20.00;77.50
51801;DHT22;37855;53.204;6.568;2023-07-31T12:53:12;20.00;77.30
51801;DHT22;37855;53.204;6.568;2023-07-31T12:55:38;20.00;77.40
51801;DHT22;37855;53.204;6.568;2023-07-31T12:58:04;20.00;77.40
51801;DHT22;37855;53.204;6.568;2023-07-31T13:00:30;20.00;77.40
51801;DHT22;37855;53.204;6.568;2023-07-31T13:02:55;19.90;77.60
51801;DHT22;37855;53.204;6.568;2023-07-31T13:05:21;19.90;77.70
51801;DHT22;37855;53.204;6.568;2023-07-31T13:07:47;19.80;77.90
51801;DHT22;37855;53.204;6.568;2023-07-31T13:10:13;19.80;78.10
51801;DHT22;37855;53.204;6.568;2023-07-31T13:12:39;19.80;77.90
51801;DHT22;37855;53.204;6.568;2023-07-31T13:15:05;19.80;78.10
51801;DHT22;37855;53.204;6.568;2023-07-31T13:17:31;19.80;77.90
51801;DHT22;37855;53.204;6.568;2023-07-31T13:20:00;19.80;78.00
51801;DHT22;37855;53.204;6.568;2023-07-31T13:22:26;19.80;78.10
51801;DHT22;37855;53.204;6.568;2023-07-31T13:24:52;19.90;78.20
51801;DHT22;37855;53.204;6.568;2023-07-31T13:27:19;19.90;78.20
51801;DHT22;37855;53.204;6.568;2023-07-31T13:29:50;19.90;78.10
51801;DHT22;37855;53.204;6.568;2023-07-31T13:32:17;20.00;77.90
51801;DHT22;37855;53.204;6.568;2023-07-31T13:34:43;19.90;77.80
51801;DHT22;37855;53.204;6.568;2023-07-31T13:37:09;19.90;77.60
51801;DHT22;37855;53.204;6.568;2023-07-31T13:39:35;19.90;77.80
51801;DHT22;37855;53.204;6.568;2023-07-31T13:42:03;19.90;77.60
51801;DHT22;37855;53.204;6.568;2023-07-31T13:44:32;20.00;77.60
51801;DHT22;37855;53.204;6.568;2023-07-31T13:46:59;20.00;77.50
51801;DHT22;37855;53.204;6.568;2023-07-31T13:49:24;20.10;77.50
51801;DHT22;37855;53.204;6.568;2023-07-31T13:51:50;20.20;77.40
51801;DHT22;37855;53.204;6.568;2023-07-31T13:54:16;20.30;77.60
51801;DHT22;37855;53.204;6.568;2023-07-31T13:56:42;20.40;77.30
51801;DHT22;37855;53.204;6.568;2023-07-31T13:59:08;20.50;77.00
51801;DHT22;37855;53.204;6.568;2023-07-31T14:01:34;20.50;76.60
51801;DHT22;37855;53.204;6.568;2023-07-31T14:03:59;20.60;76.10
51801;DHT22;37855;53.204;6.568;2023-07-31T14:06:25;20.60;76.20
51801;DHT22;37855;53.204;6.568;2023-07-31T14:08:51;20.70;76.00
51801;DHT22;37855;53.204;6.568;2023-07-31T14:11:16;20.70;75.70
51801;DHT22;37855;53.204;6.568;2023-07-31T14:13:42;20.70;75.80
51801;DHT22;37855;53.204;6.568;2023-07-31T14:16:08;20.70;75.70
51801;DHT22;37855;53.204;6.568;2023-07-31T14:18:34;20.60;75.70
51801;DHT22;37855;53.204;6.568;2023-07-31T14:21:00;20.60;75.80
51801;DHT22;37855;53.204;6.568;2023-07-31T14:23:25;20.50;75.50
51801;DHT22;37855;53.204;6.568;2023-07-31T14:25:51;20.40;75.10
51801;DHT22;37855;53.204;6.568;2023-07-31T14:28:16;20.30;75.30
51801;DHT22;37855;53.204;6.568;2023-07-31T14:30:42;20.30;75.40
51801;DHT22;37855;53.204;6.568;2023-07-31T14:33:08;20.30;75.40
51801;DHT22;37855;53.204;6.568;2023-07-31T14:35:34;20.30;75.40
51801;DHT22;37855;53.204;6.568;2023-07-31T14:38:00;20.40;75.40
51801;DHT22;37855;53.204;6.568;2023-07-31T14:40:26;20.40;75.00
51801;DHT22;37855;53.204;6.568;2023-07-31T14:42:51;20.40;74.40
51801;DHT22;37855;53.204;6.568;2023-07-31T14:45:17;20.40;74.90
51801;DHT22;37855;53.204;6.568;2023-07-31T14:47:43;20.30;74.90
51801;DHT22;37855;53.204;6.568;2023-07-31T14:50:09;20.30;75.10
51801;DHT22;37855;53.204;6.568;2023-07-31T14:52:35;20.30;75.00
51801;DHT22;37855;53.204;6.568;2023-07-31T14:55:00;20.30;75.10
51801;DHT22;37855;53.204;6.568;2023-07-31T14:57:26;20.30;74.80
51801;DHT22;37855;53.204;6.568;2023-07-31T14:59:52;20.30;74.90
51801;DHT22;37855;53.204;6.568;2023-07-31T15:02:17;20.20;75.20
51801;DHT22;37855;53.204;6.568;2023-07-31T15:04:43;20.20;75.50
51801;DHT22;37855;53.204;6.568;2023-07-31T15:07:12;20.30;75.50
51801;DHT22;37855;53.204;6.568;2023-07-31T15:09:39;20.30;75.70
51801;DHT22;37855;53.204;6.568;2023-07-31T15:12:06;20.20;75.60
51801;DHT22;37855;53.204;6.568;2023-07-31T15:14:32;20.20;75.60
51801;DHT22;37855;53.204;6.568;2023-07-31T15:17:00;20.20;75.60
51801;DHT22;37855;53.204;6.568;2023-07-31T15:19:25;20.20;75.50
51801;DHT22;37855;53.204;6.568;2023-07-31T15:21:52;20.10;75.60
51801;DHT22;37855;53.204;6.568;2023-07-31T15:24:18;20.10;75.50
51801;DHT22;37855;53.204;6.568;2023-07-31T15:26:45;20.10;75.50
51801;DHT22;37855;53.204;6.568;2023-07-31T15:29:12;20.00;75.70
51801;DHT22;37855;53.204;6.568;2023-07-31T15:31:45;20.10;75.40
51801;DHT22;37855;53.204;6.568;2023-07-31T15:34:13;20.10;75.50
51801;DHT22;37855;53.204;6.568;2023-07-31T15:36:39;20.20;75.20
51801;DHT22;37855;53.204;6.568;2023-07-31T15:39:05;20.10;75.30
51801;DHT22;37855;53.204;6.568;2023-07-31T15:41:34;20.10;75.40
51801;DHT22;37855;53.204;6.568;2023-07-31T15:43:59;20.00;75.50
51801;DHT22;37855;53.204;6.568;2023-07-31T15:46:25;20.00;75.70